createdAt,value
2023-03-22T00:01:17.802Z,3.92
2023-03-22T00:03:45.710Z,4.82
2023-03-22T00:06:13.590Z,4.20
2023-03-22T00:08:41.387Z,5.18
2023-03-22T00:11:09.758Z,4.57
2023-03-22T00:13:39.108Z,4.45
2023-03-22T00:16:09.935Z,5.20
2023-03-22T00:18:37.870Z,4.68
2023-03-22T00:21:05.957Z,4.70
2023-03-22T00:23:33.908Z,4.55
2023-03-22T00:26:01.515Z,5.35
2023-03-22T00:28:29.097Z,6.05
2023-03-22T00:31:00.857Z,5.15
2023-03-22T00:33:30.363Z,4.15
2023-03-22T00:35:59.956Z,5.38
2023-03-22T00:38:42.137Z,4.78
2023-03-22T00:41:13.332Z,5.95
2023-03-22T00:43:41.810Z,5.72
2023-03-22T00:46:12.365Z,4.85
2023-03-22T00:48:40.475Z,6.57
2023-03-22T00:51:09.418Z,5.32
2023-03-22T00:53:37.217Z,4.70
2023-03-22T00:56:05.780Z,5.70
2023-03-22T00:58:33.802Z,5.38
2023-03-22T01:01:01.642Z,4.90
2023-03-22T01:03:30.738Z,4.35
2023-03-22T01:05:58.666Z,5.10
2023-03-22T01:08:33.565Z,4.53
2023-03-22T01:11:01.875Z,5.30
2023-03-22T01:13:29.770Z,5.95
2023-03-22T01:15:57.546Z,6.03
2023-03-22T01:18:25.177Z,5.72
2023-03-22T01:20:54.213Z,6.30
2023-03-22T01:23:21.795Z,6.95
2023-03-22T01:25:49.461Z,5.88
2023-03-22T01:28:17.123Z,5.85
2023-03-22T01:30:44.743Z,4.97
2023-03-22T01:33:12.408Z,6.72
2023-03-22T01:35:40.582Z,6.75
2023-03-22T01:38:09.751Z,6.07
2023-03-22T01:40:37.815Z,5.72
2023-03-22T01:43:11.537Z,6.13
2023-03-22T01:45:45.834Z,6.20
2023-03-22T01:48:19.332Z,6.40
2023-03-22T01:50:56.076Z,6.25
2023-03-22T01:53:27.270Z,7.20
2023-03-22T01:55:56.408Z,7.00
2023-03-22T01:58:24.774Z,6.40
2023-03-22T02:00:53.677Z,7.28
2023-03-22T02:03:31.093Z,7.43
2023-03-22T02:05:58.856Z,5.95
2023-03-22T02:08:27.824Z,6.07
2023-03-22T02:10:55.693Z,7.03
2023-03-22T02:13:39.344Z,7.75
2023-03-22T02:16:21.332Z,6.90
2023-03-22T02:19:05.959Z,6.32
2023-03-22T02:21:49.587Z,6.15
2023-03-22T02:24:49.459Z,6.30
2023-03-22T02:27:28.514Z,5.45
2023-03-22T02:30:14.193Z,7.10
2023-03-22T02:33:03.342Z,7.05
2023-03-22T02:35:43.920Z,7.53
2023-03-22T02:38:36.654Z,6.43
2023-03-22T02:41:14.153Z,6.60
2023-03-22T02:43:49.407Z,6.65
2023-03-22T02:46:23.089Z,7.40
2023-03-22T02:49:01.190Z,6.57
2023-03-22T02:51:35.545Z,7.30
2023-03-22T02:54:08.494Z,7.20
2023-03-22T02:56:41.765Z,8.27
2023-03-22T02:59:13.685Z,8.13
2023-03-22T03:01:44.949Z,7.10
2023-03-22T03:04:18.486Z,7.28
2023-03-22T03:06:49.429Z,7.65
2023-03-22T03:09:19.958Z,7.43
2023-03-22T03:11:51.239Z,7.15
2023-03-22T03:14:24.563Z,7.25
2023-03-22T03:17:07.375Z,8.07
2023-03-22T03:19:41.960Z,7.57
2023-03-22T03:22:27.326Z,7.55
2023-03-22T03:25:02.643Z,7.88
2023-03-22T03:27:38.512Z,8.98
2023-03-22T03:30:12.793Z,7.18
2023-03-22T03:32:46.407Z,7.03
2023-03-22T03:35:23.167Z,7.72
2023-03-22T03:37:54.863Z,8.07
2023-03-22T03:40:27.587Z,7.10
2023-03-22T03:42:58.011Z,7.35
2023-03-22T03:45:26.067Z,8.27
2023-03-22T03:47:58.932Z,8.05
2023-03-22T03:50:28.012Z,7.68
2023-03-22T03:52:56.854Z,8.45
2023-03-22T03:55:27.538Z,7.70
2023-03-22T03:57:56.457Z,7.15
2023-03-22T04:00:24.152Z,7.70
2023-03-22T04:02:51.835Z,7.63
2023-03-22T04:05:19.759Z,7.90
2023-03-22T04:07:47.545Z,7.57
2023-03-22T04:10:15.144Z,7.15
2023-03-22T04:12:42.946Z,7.78
2023-03-22T04:15:13.130Z,6.75
2023-03-22T04:17:41.587Z,8.07
2023-03-22T04:20:12.922Z,8.68
2023-03-22T04:22:41.792Z,7.57
2023-03-22T04:25:12.036Z,7.18
2023-03-22T04:27:40.981Z,7.70
2023-03-22T04:30:11.235Z,7.60
2023-03-22T04:32:40.604Z,6.85
2023-03-22T04:35:08.802Z,7.93
2023-03-22T04:37:36.442Z,7.60
2023-03-22T04:40:06.635Z,7.57
2023-03-22T04:42:34.824Z,8.20
2023-03-22T04:45:03.993Z,7.40
2023-03-22T04:47:31.756Z,8.75
2023-03-22T04:50:00.899Z,7.78
2023-03-22T04:52:28.685Z,7.75
2023-03-22T04:54:56.542Z,8.82
2023-03-22T04:57:24.647Z,9.20
2023-03-22T04:59:52.376Z,8.30
2023-03-22T05:02:20.265Z,8.10
2023-03-22T05:04:48.387Z,9.45
2023-03-22T05:07:17.462Z,12.35
2023-03-22T05:09:45.256Z,8.35
2023-03-22T05:12:13.232Z,8.02
2023-03-22T05:14:41.082Z,8.77
2023-03-22T05:17:09.053Z,8.88
2023-03-22T05:19:37.157Z,8.90
2023-03-22T05:22:05.111Z,7.78
2023-03-22T05:24:34.052Z,9.23
2023-03-22T05:27:03.613Z,8.52
2023-03-22T05:29:36.989Z,8.25
2023-03-22T05:32:05.527Z,8.10
2023-03-22T05:34:36.286Z,8.73
2023-03-22T05:37:04.383Z,7.45
2023-03-22T05:39:33.737Z,8.73
2023-03-22T05:42:01.414Z,8.73
2023-03-22T05:44:29.098Z,9.00
2023-03-22T05:46:57.016Z,9.07
2023-03-22T05:49:26.700Z,8.38
2023-03-22T05:51:55.194Z,7.53
2023-03-22T05:54:22.901Z,9.35
2023-03-22T05:56:54.031Z,8.93
2023-03-22T05:59:23.088Z,10.73
2023-03-22T06:01:51.166Z,8.23
2023-03-22T06:04:20.944Z,9.82
2023-03-22T06:06:48.781Z,10.02
2023-03-22T06:09:17.985Z,7.28
2023-03-22T06:11:45.978Z,9.27
2023-03-22T06:14:14.962Z,7.78
2023-03-22T06:16:42.767Z,8.07
2023-03-22T06:19:10.590Z,9.98
2023-03-22T06:21:38.247Z,10.00
2023-03-22T06:24:06.515Z,9.63
2023-03-22T06:26:34.201Z,10.75
2023-03-22T06:29:03.501Z,9.02
2023-03-22T06:31:32.516Z,8.43
2023-03-22T06:34:00.297Z,9.98
2023-03-22T06:36:30.312Z,8.75
2023-03-22T06:39:00.895Z,9.98
2023-03-22T06:41:28.649Z,9.10
2023-03-22T06:43:56.298Z,8.15
2023-03-22T06:46:24.126Z,8.35
2023-03-22T06:48:56.653Z,9.40
2023-03-22T06:51:24.675Z,7.88
2023-03-22T06:53:54.758Z,8.13
2023-03-22T06:56:22.500Z,8.40
2023-03-22T06:58:51.838Z,9.88
2023-03-22T07:01:20.092Z,9.45
2023-03-22T07:03:49.500Z,7.47
2023-03-22T07:06:18.862Z,9.02
2023-03-22T07:08:46.616Z,8.85
2023-03-22T07:11:16.563Z,8.23
2023-03-22T07:13:45.112Z,7.40
2023-03-22T07:16:13.515Z,7.65
2023-03-22T07:18:41.526Z,10.57
2023-03-22T07:21:09.509Z,9.20
2023-03-22T07:23:38.588Z,7.95
2023-03-22T07:26:07.000Z,7.00
2023-03-22T07:28:35.217Z,8.00
2023-03-22T07:31:06.620Z,9.00
2023-03-22T07:33:34.557Z,8.18
2023-03-22T07:36:02.597Z,7.82
2023-03-22T07:38:31.812Z,7.70
2023-03-22T07:41:01.038Z,8.27
2023-03-22T07:43:28.888Z,8.93
2023-03-22T07:45:56.643Z,10.18
2023-03-22T07:48:25.036Z,9.57
2023-03-22T07:50:56.725Z,7.70
2023-03-22T07:53:24.823Z,9.35
2023-03-22T07:55:52.548Z,8.07
2023-03-22T07:58:24.060Z,7.97
2023-03-22T08:00:51.626Z,7.72
2023-03-22T08:03:19.407Z,7.40
2023-03-22T08:05:48.171Z,8.25
2023-03-22T08:08:16.059Z,6.85
2023-03-22T08:10:44.143Z,6.20
2023-03-22T08:13:12.804Z,7.85
2023-03-22T08:15:43.297Z,5.93
2023-03-22T08:18:13.361Z,6.72
2023-03-22T08:20:42.095Z,5.43
2023-03-22T08:23:14.429Z,7.03
2023-03-22T08:25:42.342Z,6.82
2023-03-22T08:28:10.513Z,6.32
2023-03-22T08:30:38.626Z,6.43
2023-03-22T08:33:07.753Z,4.07
2023-03-22T08:35:35.700Z,3.88
2023-03-22T08:38:03.464Z,5.22
2023-03-22T08:40:31.130Z,3.83
2023-03-22T08:42:59.116Z,5.40
2023-03-22T08:45:26.982Z,3.50
2023-03-22T08:47:54.599Z,4.80
2023-03-22T08:50:24.277Z,4.93
2023-03-22T08:52:53.588Z,4.07
2023-03-22T08:55:21.252Z,4.47
2023-03-22T08:57:50.438Z,4.60
2023-03-22T09:00:19.528Z,3.95
2023-03-22T09:02:47.873Z,5.30
2023-03-22T09:05:15.677Z,5.53
2023-03-22T09:07:44.837Z,4.88
2023-03-22T09:10:13.079Z,6.25
2023-03-22T09:12:40.871Z,6.80
2023-03-22T09:15:09.436Z,12.82
2023-03-22T09:17:37.090Z,8.88
2023-03-22T09:20:12.730Z,5.70
2023-03-22T09:22:41.151Z,5.15
2023-03-22T09:25:12.811Z,3.95
2023-03-22T09:27:42.392Z,4.25
2023-03-22T09:30:11.846Z,3.67
2023-03-22T09:32:42.225Z,4.80
2023-03-22T09:35:10.587Z,5.32
2023-03-22T09:37:38.524Z,4.93
2023-03-22T09:40:07.765Z,4.97
2023-03-22T09:42:40.782Z,6.75
2023-03-22T09:45:14.727Z,4.53
2023-03-22T09:47:46.762Z,3.63
2023-03-22T09:50:19.601Z,4.35
2023-03-22T09:52:49.977Z,3.67
2023-03-22T09:55:23.081Z,4.68
2023-03-22T09:58:02.144Z,3.20
2023-03-22T10:00:38.937Z,3.38
2023-03-22T10:03:18.078Z,2.78
2023-03-22T10:05:50.919Z,3.80
2023-03-22T10:08:28.877Z,3.05
2023-03-22T10:10:58.541Z,3.22
2023-03-22T10:13:36.926Z,2.70
2023-03-22T10:16:08.992Z,3.25
2023-03-22T10:18:39.647Z,1.95
2023-03-22T10:21:09.641Z,2.85
2023-03-22T10:23:44.994Z,1.65
2023-03-22T10:26:21.104Z,2.90
2023-03-22T10:28:59.350Z,3.17
2023-03-22T10:31:28.133Z,3.08
2023-03-22T10:33:59.943Z,3.22
2023-03-22T10:36:33.246Z,2.78
2023-03-22T10:39:05.692Z,3.03
2023-03-22T10:41:34.985Z,2.00
2023-03-22T10:44:06.458Z,2.55
2023-03-22T10:46:39.175Z,2.45
2023-03-22T10:49:08.641Z,2.58
2023-03-22T10:51:41.603Z,2.08
2023-03-22T10:54:14.293Z,2.53
2023-03-22T10:56:42.358Z,3.25
2023-03-22T10:59:48.378Z,2.28
2023-03-22T11:02:21.139Z,1.30
2023-03-22T11:04:50.722Z,1.70
2023-03-22T11:07:31.240Z,1.73
2023-03-22T11:10:12.209Z,2.20
2023-03-22T11:12:43.144Z,1.80
2023-03-22T11:15:23.931Z,2.53
2023-03-22T11:17:51.992Z,1.55
2023-03-22T11:20:20.854Z,2.47
2023-03-22T11:22:49.759Z,1.92
2023-03-22T11:25:21.619Z,1.98
2023-03-22T11:27:54.391Z,1.77
2023-03-22T11:30:26.379Z,2.10
2023-03-22T11:33:17.821Z,3.38
2023-03-22T11:35:48.094Z,1.80
2023-03-22T11:38:31.543Z,1.25
2023-03-22T11:41:05.536Z,1.80
2023-03-22T11:43:37.398Z,1.55
2023-03-22T11:46:09.465Z,1.23
2023-03-22T11:48:38.189Z,2.15
2023-03-22T11:51:10.087Z,1.98
2023-03-22T11:53:40.418Z,1.50
2023-03-22T11:56:11.870Z,1.38
2023-03-22T11:58:59.880Z,1.80
2023-03-22T12:01:43.785Z,1.45
2023-03-22T12:04:17.369Z,1.10
2023-03-22T12:06:45.316Z,0.95
2023-03-22T12:09:23.422Z,1.35
2023-03-22T12:11:54.241Z,1.35
2023-03-22T12:14:24.406Z,1.55
2023-03-22T12:16:59.175Z,1.67
2023-03-22T12:19:42.683Z,1.98
2023-03-22T12:22:13.922Z,1.52
2023-03-22T12:24:43.033Z,1.80
2023-03-22T12:27:18.524Z,1.42
2023-03-22T12:29:50.832Z,1.90
2023-03-22T12:32:25.255Z,1.60
2023-03-22T12:35:05.403Z,1.38
2023-03-22T12:37:44.294Z,1.80
2023-03-22T12:40:24.279Z,1.48
2023-03-22T12:43:01.755Z,1.30
2023-03-22T12:45:33.087Z,1.50
2023-03-22T12:48:07.368Z,1.90
2023-03-22T12:50:38.723Z,1.60
2023-03-22T12:53:08.606Z,2.13
2023-03-22T12:55:40.978Z,2.13
2023-03-22T12:58:10.882Z,1.85
2023-03-22T13:00:45.818Z,1.58
2023-03-22T13:03:26.862Z,1.88
2023-03-22T13:06:07.671Z,1.60
2023-03-22T13:09:17.027Z,1.80
2023-03-22T13:11:46.560Z,2.08
2023-03-22T13:14:47.012Z,1.75
2023-03-22T13:17:16.918Z,1.63
2023-03-22T13:19:54.746Z,2.05
2023-03-22T13:22:28.223Z,1.67
2023-03-22T13:25:10.910Z,1.45
2023-03-22T13:27:41.754Z,2.80
2023-03-22T13:30:17.779Z,1.27
2023-03-22T13:32:54.604Z,1.45
2023-03-22T13:35:28.288Z,1.80
2023-03-22T13:38:03.064Z,1.20
2023-03-22T13:40:37.548Z,2.05
2023-03-22T13:43:25.298Z,2.10
2023-03-22T13:46:14.916Z,1.50
2023-03-22T13:48:52.263Z,1.65
2023-03-22T13:51:30.097Z,2.15
2023-03-22T13:54:03.457Z,1.77
2023-03-22T13:56:52.212Z,1.45
2023-03-22T13:59:25.265Z,1.42
2023-03-22T14:01:55.693Z,1.50
2023-03-22T14:04:29.920Z,1.27
2023-03-22T14:07:01.614Z,2.00
2023-03-22T14:09:36.652Z,3.22
2023-03-22T14:12:10.771Z,1.75
2023-03-22T14:14:43.873Z,1.60
2023-03-22T14:17:22.800Z,1.95
2023-03-22T14:19:52.628Z,1.83
